Time;durP1;ratioP1;P1;durP2;ratioP2;P2;SDS_P1;SDS_P2;PMS_P1;PMS_P2;Temp;Humidity;BMP_temperature;BMP_pressure;BME280_temperature;BME280_humidity;BME280_pressure;Samples;Min_cycle;Max_cycle;Signal;HPM_P1;HPM_P2
2021/03/06 00:01:10;;;;;;;41.53;20.08;;;;;;;4.20;64.42;96618.16;5044916;28;20077;-60
2021/03/06 00:03:36;;;;;;;42.83;18.98;;;;;;;6.99;64.30;97033.47;5045465;28;20044;-61
2021/03/06 00:06:01;;;;;;;38.05;18.25;;;;;;;6.97;63.72;97042.06;5046478;28;20123;-60
2021/03/06 00:08:27;;;;;;;41.28;20.73;;;;;;;6.78;65.34;97052.09;5046302;28;20482;-61
2021/03/06 00:10:55;;;;;;;29.92;16.30;;;;;;;5.77;65.66;96907.34;5044530;28;20099;-59
2021/03/06 00:13:21;;;;;;;33.70;17.00;;;;;;;6.67;66.14;97046.25;5046407;28;20025;-59
2021/03/06 00:15:47;;;;;;;30.20;16.65;;;;;;;6.38;65.68;97005.22;5046236;28;20052;-59
2021/03/06 00:18:15;;;;;;;28.70;15.88;;;;;;;6.75;65.23;97050.81;5046062;28;20036;-61
2021/03/06 00:20:41;;;;;;;33.72;17.67;;;;;;;6.07;65.99;96933.47;5044429;28;20033;-59
2021/03/06 00:23:06;;;;;;;40.10;18.65;;;;;;;6.40;65.77;96983.69;5045909;28;20037;-60
2021/03/06 00:25:32;;;;;;;39.35;21.05;;;;;;;6.91;64.50;97051.72;5027823;28;20057;-59
2021/03/06 00:27:57;;;;;;;40.92;19.33;;;;;;;6.91;64.53;97073.75;5026123;28;20036;-59
2021/03/06 00:30:26;;;;;;;50.10;23.65;;;;;;;6.44;64.74;96998.34;5024480;28;20144;-60
2021/03/06 00:32:52;;;;;;;42.78;22.73;;;;;;;6.80;65.35;97078.13;5026062;28;20498;-61
2021/03/06 00:35:17;;;;;;;38.25;18.05;;;;;;;6.50;66.49;97035.47;5025862;28;20119;-59
2021/03/06 00:37:43;;;;;;;31.85;17.02;;;;;;;6.47;68.88;97060.13;5026042;28;20025;-59
2021/03/06 00:40:10;;;;;;;31.40;15.75;;;;;;;5.73;68.33;97010.84;5025833;28;20511;-59
2021/03/06 00:42:36;;;;;;;33.83;17.48;;;;;;;6.34;67.50;97031.81;5041284;28;20115;-60
2021/03/06 00:45:04;;;;;;;29.63;16.77;;;;;;;6.60;67.32;97068.03;5025732;28;20022;-59
2021/03/06 00:47:30;;;;;;;35.42;17.98;;;;;;;6.18;67.33;96973.13;5026045;28;20031;-60
2021/03/06 00:49:55;;;;;;;42.88;22.05;;;;;;;6.78;66.67;97063.91;5025782;28;20488;-61
2021/03/06 00:52:21;;;;;;;59.08;27.33;;;;;;;6.80;66.41;97066.31;5025450;28;20134;-60
2021/03/06 00:54:47;;;;;;;48.60;23.50;;;;;;;6.87;65.72;97061.84;5025798;28;20103;-59
2021/03/06 00:57:12;;;;;;;47.20;24.23;;;;;;;6.67;64.53;97010.47;5024320;28;20470;-58
2021/03/06 00:59:38;;;;;;;39.22;21.55;;;;;;;6.16;64.22;96947.94;5025688;28;20034;-59
2021/03/06 01:02:06;;;;;;;31.13;17.38;;;;;;;6.89;62.43;97059.53;5025743;28;20066;-60
2021/03/06 01:04:32;;;;;;;32.70;15.30;;;;;;;6.96;61.38;97059.75;5025766;28;20108;-60
2021/03/06 01:06:58;;;;;;;34.28;16.83;;;;;;;6.54;61.35;97011.66;5025579;28;20587;-59
2021/03/06 01:09:24;;;;;;;29.20;13.90;;;;;;;6.94;60.16;97064.81;5025380;28;20095;-59
2021/03/06 01:11:50;;;;;;;28.27;13.88;;;;;;;6.89;59.84;97054.03;5025449;28;20136;-62
2021/03/06 01:14:16;;;;;;;24.73;12.30;;;;;;;5.54;59.15;96826.50;5025257;28;20057;-60
2021/03/06 01:16:41;;;;;;;19.27;12.02;;;;;;;7.07;58.71;97049.88;5024089;28;20075;-58
2021/03/06 01:19:07;;;;;;;58.28;26.02;;;;;;;6.99;58.94;97045.28;5025877;28;20025;-61
2021/03/06 01:21:33;;;;;;;26.33;14.13;;;;;;;7.14;57.36;97047.34;5024947;28;20037;-59
2021/03/06 01:23:59;;;;;;;25.30;13.63;;;;;;;6.86;57.06;97005.16;5026942;28;20484;-60
2021/03/06 01:26:27;;;;;;;28.30;12.77;;;;;;;7.23;57.07;97056.25;5044907;28;20043;-60
2021/03/06 01:28:52;;;;;;;27.77;14.30;;;;;;;6.79;58.93;97004.16;5044732;28;20052;-59
2021/03/06 01:31:18;;;;;;;28.95;13.38;;;;;;;6.75;58.85;96998.53;5043040;28;20150;-59
2021/03/06 01:33:44;;;;;;;25.42;13.80;;;;;;;7.27;58.34;97059.91;5044931;28;20483;-60
2021/03/06 01:36:10;;;;;;;29.15;14.70;;;;;;;7.25;60.00;97062.25;5044173;28;20040;-59
2021/03/06 01:38:38;;;;;;;26.02;15.05;;;;;;;7.12;60.95;97062.59;5044664;28;20082;-62
2021/03/06 01:41:04;;;;;;;24.27;14.32;;;;;;;7.20;60.88;97069.94;5043174;28;20041;-58
2021/03/06 01:43:29;;;;;;;27.48;15.23;;;;;;;6.54;63.22;96997.88;5044694;28;20466;-60
2021/03/06 01:45:55;;;;;;;28.38;14.75;;;;;;;6.30;63.67;96962.13;5042881;28;20570;-58
2021/03/06 01:48:21;;;;;;;31.50;16.38;;;;;;;7.00;63.66;97063.41;5044645;28;20032;-61
2021/03/06 01:50:47;;;;;;;27.83;15.57;;;;;;;6.04;62.13;96920.41;5043802;28;20057;-59
2021/03/06 01:53:13;;;;;;;28.55;16.75;;;;;;;7.09;61.74;97057.78;5044832;28;20025;-60
2021/03/06 01:55:43;;;;;;;38.97;16.98;;;;;;;6.30;62.39;96964.06;5044523;28;20044;-59
2021/03/06 01:58:10;;;;;;;28.73;15.88;;;;;;;3.97;62.53;96576.66;5044597;28;20029;-61
2021/03/06 02:00:36;;;;;;;28.75;16.35;;;;;;;6.93;62.94;97054.13;5044403;28;20040;-60
2021/03/06 02:03:02;;;;;;;32.90;17.30;;;;;;;6.31;62.62;96960.97;5044480;28;20480;-59
2021/03/06 02:05:30;;;;;;;32.60;18.10;;;;;;;7.01;63.36;97043.00;5042707;28;20705;-58
2021/03/06 02:07:56;;;;;;;44.65;23.55;;;;;;;7.03;62.72;97043.47;5042669;28;20028;-58
2021/03/06 02:10:30;;;;;;;26.45;14.50;;;;;;;6.46;65.69;97020.81;5044116;28;20033;-58
2021/03/06 02:13:23;;;;;;;28.63;15.63;;;;;;;5.81;70.28;97062.97;5042610;28;20033;-58
2021/03/06 02:16:10;;;;;;;31.55;14.65;;;;;;;5.51;74.23;97071.66;5044383;28;20037;-61
2021/03/06 02:18:48;;;;;;;28.55;15.02;;;;;;;5.31;71.73;97080.75;5043945;28;20551;-61
2021/03/06 02:21:34;;;;;;;29.60;16.52;;;;;;;5.28;71.51;96966.09;5043993;28;20136;-61
2021/03/06 02:24:21;;;;;;;31.08;15.90;;;;;;;5.94;71.28;97067.38;5041009;28;20064;-58
2021/03/06 02:26:54;;;;;;;31.77;15.88;;;;;;;5.62;71.12;97024.22;5024165;28;20037;-58
2021/03/06 02:29:50;;;;;;;30.65;16.52;;;;;;;5.99;70.56;97058.13;5023988;28;20522;-59
2021/03/06 02:32:25;;;;;;;35.08;17.30;;;;;;;5.93;70.23;97046.53;5024343;28;20060;-61
2021/03/06 02:35:15;;;;;;;40.50;18.70;;;;;;;6.07;69.12;97062.69;5023951;28;20068;-58
2021/03/06 02:38:04;;;;;;;35.63;18.60;;;;;;;5.52;67.79;96964.19;5022639;28;20033;-60
2021/03/06 02:40:30;;;;;;;35.72;18.45;;;;;;;6.29;66.46;97070.56;5022105;28;20430;-59
2021/03/06 02:42:57;;;;;;;37.83;21.10;;;;;;;6.40;64.98;97068.97;5023509;28;20496;-58
2021/03/06 02:45:25;;;;;;;30.48;18.20;;;;;;;6.52;64.33;97070.91;5023769;28;20439;-59
2021/03/06 02:47:51;;;;;;;42.97;23.98;;;;;;;6.49;63.26;97088.91;5023555;28;20419;-59
2021/03/06 02:50:17;;;;;;;36.08;19.45;;;;;;;6.15;63.06;97023.31;5023672;28;20037;-60
2021/03/06 02:52:43;;;;;;;41.33;19.27;;;;;;;6.01;62.44;97000.84;5023671;28;20574;-59
2021/03/06 02:55:11;;;;;;;27.08;13.32;;;;;;;6.60;61.72;97095.56;5023430;28;20042;-61
2021/03/06 02:57:40;;;;;;;24.55;11.82;;;;;;;6.51;60.94;97085.81;5023743;28;20029;-61
2021/03/06 03:00:20;;;;;;;35.33;16.63;;;;;;;6.24;61.93;97069.97;5022117;28;20568;-59
2021/03/06 03:03:09;;;;;;;31.38;13.98;;;;;;;6.44;61.54;97094.63;5023608;28;20029;-59
2021/03/06 03:05:50;;;;;;;24.98;14.23;;;;;;;6.52;60.32;97092.91;5021640;28;20819;-61
2021/03/06 03:08:29;;;;;;;25.42;13.35;;;;;;;6.68;59.78;97099.34;5023703;28;20163;-59
2021/03/06 03:11:02;;;;;;;25.27;13.93;;;;;;;6.51;61.14;97066.56;5023543;28;20496;-60
2021/03/06 03:13:35;;;;;;;48.58;20.83;;;;;;;6.61;64.28;97108.16;5022956;28;20055;-59
2021/03/06 03:16:15;;;;;;;45.63;18.70;;;;;;;6.53;66.01;97095.31;5023348;28;20520;-59
2021/03/06 03:18:48;;;;;;;32.25;16.30;;;;;;;6.47;65.89;97102.19;5023929;28;20025;-60
2021/03/06 03:21:19;;;;;;;37.50;16.67;;;;;;;6.30;67.27;97121.66;5023283;28;20057;-61
2021/03/06 03:23:54;;;;;;;34.90;15.85;;;;;;;5.76;69.46;97095.34;5024011;28;20108;-60
2021/03/06 03:26:21;;;;;;;30.50;14.98;;;;;;;5.99;69.20;97113.91;5043421;28;20091;-59
2021/03/06 03:28:49;;;;;;;30.77;14.95;;;;;;;5.73;67.47;97061.13;5043581;28;20029;-60
2021/03/06 03:31:17;;;;;;;29.75;14.43;;;;;;;5.32;68.04;97010.94;5042058;28;20041;-59
2021/03/06 03:33:44;;;;;;;26.52;14.27;;;;;;;6.01;68.45;97116.31;5043359;28;20136;-60
2021/03/06 03:36:11;;;;;;;29.50;14.73;;;;;;;6.06;68.49;97119.66;5042862;28;20083;-60
2021/03/06 03:38:38;;;;;;;28.25;13.93;;;;;;;5.28;68.38;97005.31;5042967;28;20025;-62
2021/03/06 03:41:08;;;;;;;25.10;14.15;;;;;;;6.09;68.08;97123.66;5042944;28;20041;-61
2021/03/06 03:43:34;;;;;;;32.38;15.60;;;;;;;6.06;68.74;97124.34;5043203;28;20025;-60
2021/03/06 03:46:03;;;;;;;30.52;16.17;;;;;;;5.62;67.99;97053.63;5043155;28;20388;-60
2021/03/06 03:48:29;;;;;;;32.47;17.02;;;;;;;5.44;65.25;97041.19;5043374;28;20029;-59
2021/03/06 03:50:54;;;;;;;27.85;16.17;;;;;;;6.11;62.71;97132.38;5042901;28;20076;-60
2021/03/06 03:53:21;;;;;;;26.25;15.00;;;;;;;6.07;62.99;97134.19;5042952;28;20071;-60
2021/03/06 03:55:47;;;;;;;28.33;14.48;;;;;;;5.51;62.89;97044.19;5043103;28;20033;-61
2021/03/06 03:58:13;;;;;;;20.67;11.30;;;;;;;6.21;61.57;97137.47;5042203;28;20039;-61
2021/03/06 04:00:38;;;;;;;21.83;12.38;;;;;;;6.32;61.03;97138.63;5046306;28;20677;-59
2021/03/06 04:03:05;;;;;;;21.50;12.80;;;;;;;6.36;60.54;97144.25;5045149;28;20064;-60
2021/03/06 04:05:31;;;;;;;23.63;13.55;;;;;;;6.35;61.44;97137.97;5046325;28;20045;-61
2021/03/06 04:07:57;;;;;;;26.17;13.43;;;;;;;6.42;61.41;97154.69;5046904;28;20031;-61
2021/03/06 04:10:25;;;;;;;26.80;15.05;;;;;;;6.17;60.52;97117.28;5045943;28;20499;-61
2021/03/06 04:12:52;;;;;;;51.25;25.75;;;;;;;6.27;61.02;97147.09;5044618;28;20491;-59
2021/03/06 04:15:20;;;;;;;39.15;19.10;;;;;;;5.79;61.56;97098.22;5046211;28;20119;-58
2021/03/06 04:17:47;;;;;;;24.58;12.18;;;;;;;5.94;61.66;97119.59;5046142;28;20029;-60
2021/03/06 04:20:15;;;;;;;22.65;12.25;;;;;;;6.09;60.70;97124.47;5045828;28;20051;-58
2021/03/06 04:22:41;;;;;;;27.08;12.40;;;;;;;5.53;62.13;97069.41;5046182;28;20039;-59
2021/03/06 04:25:08;;;;;;;23.58;12.38;;;;;;;6.09;61.19;97140.16;5033227;28;20037;-58
2021/03/06 04:27:35;;;;;;;27.85;13.00;;;;;;;5.37;61.84;97052.75;5026074;28;20542;-58
2021/03/06 04:30:02;;;;;;;38.97;16.58;;;;;;;6.04;60.85;97162.38;5026282;28;20034;-58
2021/03/06 04:32:29;;;;;;;37.17;16.65;;;;;;;5.98;61.01;97142.53;5026169;28;20151;-58
2021/03/06 04:34:55;;;;;;;29.40;13.38;;;;;;;6.06;60.66;97140.84;5026215;28;20021;-59
2021/03/06 04:37:20;;;;;;;29.15;14.93;;;;;;;5.18;61.20;97065.34;5025910;28;20034;-59
2021/03/06 04:39:46;;;;;;;28.55;14.48;;;;;;;5.91;62.23;97155.25;5025877;28;20107;-59
2021/03/06 04:42:11;;;;;;;29.77;15.00;;;;;;;5.66;62.80;97175.44;5024112;28;20128;-58
2021/03/06 04:44:37;;;;;;;30.65;13.68;;;;;;;5.73;62.89;97175.72;5025991;28;20033;-60
2021/03/06 04:47:04;;;;;;;27.27;14.20;;;;;;;5.83;63.56;97169.84;5026154;28;20037;-59
2021/03/06 04:49:31;;;;;;;30.98;17.52;;;;;;;5.91;61.90;97166.22;5025569;28;20231;-60
2021/03/06 04:51:57;;;;;;;29.92;14.82;;;;;;;5.48;61.60;97091.56;5023780;28;20053;-60
2021/03/06 04:54:23;;;;;;;25.75;13.32;;;;;;;5.84;61.58;97138.47;5026021;28;20310;-59
2021/03/06 04:56:49;;;;;;;30.50;13.93;;;;;;;6.02;61.58;97159.97;5025478;28;20037;-63
2021/03/06 04:59:16;;;;;;;23.85;12.70;;;;;;;5.49;62.03;97109.66;5025639;28;20033;-60
2021/03/06 05:01:44;;;;;;;26.45;14.40;;;;;;;5.58;61.69;97110.41;5024357;28;20064;-60
2021/03/06 05:04:11;;;;;;;43.67;20.95;;;;;;;6.13;61.34;97165.84;5025563;28;20408;-62
2021/03/06 05:06:37;;;;;;;33.92;18.73;;;;;;;6.01;60.89;97177.59;5023841;28;20033;-60
2021/03/06 05:09:03;;;;;;;39.38;20.77;;;;;;;5.74;64.20;97172.63;5024996;28;20026;-61
2021/03/06 05:11:29;;;;;;;33.03;18.20;;;;;;;5.77;64.75;97182.97;5025176;28;20408;-60
2021/03/06 05:13:55;;;;;;;33.55;18.17;;;;;;;5.75;64.75;97140.47;5023468;28;20030;-60
2021/03/06 05:16:20;;;;;;;36.58;18.10;;;;;;;5.99;63.98;97173.59;5024397;28;20049;-59
2021/03/06 05:18:46;;;;;;;33.22;18.75;;;;;;;5.86;65.53;97177.44;5025271;28;20022;-61
2021/03/06 05:21:12;;;;;;;36.30;18.77;;;;;;;5.98;64.66;97182.97;5025190;28;20041;-64
2021/03/06 05:23:38;;;;;;;46.58;22.98;;;;;;;5.98;63.74;97169.22;5025510;28;20770;-61
2021/03/06 05:26:03;;;;;;;43.10;23.00;;;;;;;6.25;63.50;97187.88;5043896;28;20028;-61
2021/03/06 05:28:29;;;;;;;45.63;23.15;;;;;;;6.28;63.33;97198.22;5043367;28;20557;-60
2021/03/06 05:30:55;;;;;;;57.97;29.60;;;;;;;6.35;62.15;97187.47;5044647;28;20480;-61
2021/03/06 05:33:21;;;;;;;51.10;28.02;;;;;;;5.77;63.73;97122.50;5044856;28;20504;-60
2021/03/06 05:35:47;;;;;;;53.67;26.17;;;;;;;6.36;63.47;97200.06;5044972;28;20522;-60
2021/03/06 05:38:12;;;;;;;66.22;29.60;;;;;;;6.09;65.63;97200.66;5045225;28;20041;-62
2021/03/06 05:40:41;;;;;;;67.35;30.50;;;;;;;6.14;65.06;97204.03;5044651;28;20048;-61
2021/03/06 05:43:07;;;;;;;69.65;33.45;;;;;;;6.38;63.57;97197.78;5044467;28;20025;-61
2021/03/06 05:45:32;;;;;;;67.20;30.45;;;;;;;6.15;63.89;97144.31;5044232;28;20040;-61
2021/03/06 05:47:59;;;;;;;65.07;32.58;;;;;;;6.42;63.03;97165.69;5044717;28;20128;-60
2021/03/06 05:50:26;;;;;;;70.55;30.50;;;;;;;5.80;63.54;97053.09;5042566;28;20033;-60
2021/03/06 05:52:52;;;;;;;63.80;28.55;;;;;;;5.97;64.46;97134.63;5042376;28;20033;-60
2021/03/06 05:55:19;;;;;;;56.92;26.60;;;;;;;6.75;62.64;97202.22;5042579;28;20210;-61
2021/03/06 05:57:47;;;;;;;83.10;34.58;;;;;;;4.41;61.19;96773.22;5043149;28;20087;-61
2021/03/06 06:00:14;;;;;;;103.22;39.35;;;;;;;6.52;60.70;97135.00;5044143;28;20475;-59
2021/03/06 06:02:41;;;;;;;73.78;34.38;;;;;;;6.42;60.56;97071.38;5044084;28;20507;-60
2021/03/06 06:05:08;;;;;;;70.25;27.88;;;;;;;7.50;60.81;97229.13;5032675;28;20716;-59
2021/03/06 06:07:39;;;;;;;66.57;30.25;;;;;;;7.70;60.80;97233.69;5025166;28;20020;-60
2021/03/06 06:10:06;;;;;;;68.75;33.42;;;;;;;5.01;61.60;96801.97;5040654;28;20025;-60
2021/03/06 06:12:32;;;;;;;110.63;52.20;;;;;;;8.01;59.25;97229.50;5035865;28;20032;-61
2021/03/06 06:14:58;;;;;;;115.07;53.60;;;;;;;8.05;59.22;97233.13;5029052;28;20083;-62
2021/03/06 06:17:24;;;;;;;102.38;51.75;;;;;;;8.36;57.74;97244.34;5034178;28;20454;-64
2021/03/06 06:19:50;;;;;;;120.30;54.25;;;;;;;8.58;57.01;97236.28;5025293;28;20113;-61
2021/03/06 06:22:24;;;;;;;96.88;49.50;;;;;;;8.55;56.04;97247.25;5013979;28;20072;-61
2021/03/06 06:24:52;;;;;;;101.65;52.45;;;;;;;8.72;55.96;97241.41;5026279;28;20071;-62
2021/03/06 06:27:39;;;;;;;128.55;67.15;;;;;;;9.04;55.49;97238.31;5042391;28;20033;-59
2021/03/06 06:30:13;;;;;;;128.63;65.72;;;;;;;9.32;53.74;97243.78;5035060;28;20033;-57
2021/03/06 06:32:42;;;;;;;98.72;49.38;;;;;;;9.56;52.79;97249.13;5024154;28;20025;-59
2021/03/06 06:35:11;;;;;;;68.55;38.35;;;;;;;9.73;52.82;97254.28;5024126;28;20039;-57
2021/03/06 06:37:37;;;;;;;69.70;35.97;;;;;;;9.86;52.32;97250.25;5023008;28;20052;-57
2021/03/06 06:40:18;;;;;;;61.13;33.28;;;;;;;10.10;51.86;97263.84;5023325;28;20408;-57
2021/03/06 06:42:43;;;;;;;65.00;31.60;;;;;;;9.92;51.37;97262.63;5023549;28;20463;-59
2021/03/06 06:45:10;;;;;;;75.05;41.95;;;;;;;10.40;52.06;97273.19;5023573;28;20036;-61
2021/03/06 06:48:11;;;;;;;72.03;40.20;;;;;;;10.40;50.70;97239.19;5023635;28;20551;-59
2021/03/06 06:50:37;;;;;;;79.00;44.90;;;;;;;10.30;49.96;97240.56;5023134;28;20069;-61
2021/03/06 06:53:03;;;;;;;42.63;21.88;;;;;;;10.49;49.84;97268.28;5023889;28;20075;-59
2021/03/06 06:55:36;;;;;;;33.90;18.35;;;;;;;9.93;51.20;97247.63;5022795;28;20038;-60
2021/03/06 06:58:02;;;;;;;41.85;19.83;;;;;;;10.41;53.03;97282.31;5025677;28;20030;-62
2021/03/06 07:00:30;;;;;;;34.25;18.75;;;;;;;10.45;54.13;97297.84;5034730;28;20048;-60
2021/03/06 07:03:00;;;;;;;40.10;21.30;;;;;;;10.47;55.07;97322.41;5029989;28;20034;-57
2021/03/06 07:05:31;;;;;;;31.75;17.02;;;;;;;10.51;55.36;97301.91;5025873;28;20041;-62
2021/03/06 07:08:02;;;;;;;33.17;17.88;;;;;;;10.18;55.53;97268.38;5029350;28;20416;-63
2021/03/06 07:10:35;;;;;;;31.02;16.25;;;;;;;9.97;54.98;97206.19;5026876;28;20033;-64
2021/03/06 07:13:08;;;;;;;27.45;15.70;;;;;;;10.71;54.93;97316.59;5019960;28;20037;-62
2021/03/06 07:15:34;;;;;;;30.40;13.93;;;;;;;10.91;53.79;97300.78;5028448;28;20036;-62
2021/03/06 07:18:03;;;;;;;24.52;13.25;;;;;;;11.08;53.11;97320.50;5038416;28;20029;-62
2021/03/06 07:20:38;;;;;;;23.33;13.75;;;;;;;10.90;52.06;97285.28;5012184;28;20046;-62
2021/03/06 07:23:19;;;;;;;25.73;14.35;;;;;;;11.29;51.49;97331.19;5058800;28;20032;-64
2021/03/06 07:25:49;;;;;;;23.60;14.35;;;;;;;11.14;50.67;97326.56;5032429;28;20041;-66
2021/03/06 07:28:14;;;;;;;27.23;14.07;;;;;;;11.31;49.87;97290.03;5023099;28;20088;-63
2021/03/06 07:30:40;;;;;;;22.75;14.93;;;;;;;10.71;49.11;97155.91;5023377;28;20038;-62
2021/03/06 07:33:07;;;;;;;31.13;14.48;;;;;;;11.52;49.34;97259.91;5023457;28;20476;-59
2021/03/06 07:35:36;;;;;;;33.78;15.57;;;;;;;12.21;48.82;97301.06;5025373;28;20037;-62
2021/03/06 07:38:09;;;;;;;24.45;15.90;;;;;;;10.22;47.61;96945.38;5017679;28;20048;-61
2021/03/06 07:40:39;;;;;;;32.35;17.80;;;;;;;12.14;47.20;97275.97;5026589;28;20475;-61
2021/03/06 07:43:11;;;;;;;37.20;21.92;;;;;;;12.44;46.62;97287.91;5025213;28;20048;-62
2021/03/06 07:45:41;;;;;;;46.00;25.48;;;;;;;12.96;46.50;97348.94;5010993;28;20045;-60
2021/03/06 07:48:14;;;;;;;36.13;24.50;;;;;;;13.20;46.41;97339.31;5018808;28;20042;-60
2021/03/06 07:50:45;;;;;;;46.53;28.05;;;;;;;12.66;46.29;97233.41;5019756;28;20048;-59
2021/03/06 07:53:13;;;;;;;80.20;40.20;;;;;;;13.51;46.02;97342.44;5024341;28;20486;-62
2021/03/06 07:55:39;;;;;;;53.50;28.55;;;;;;;12.89;44.38;97262.66;5015673;28;20100;-62
2021/03/06 07:58:13;;;;;;;33.10;21.42;;;;;;;13.07;45.71;97344.34;5023781;28;20039;-62
2021/03/06 08:00:59;;;;;;;41.17;24.05;;;;;;;13.48;45.11;97354.34;5018303;28;20034;-61
2021/03/06 08:03:25;;;;;;;35.75;21.75;;;;;;;13.97;44.46;97353.25;5018573;28;20053;-61
2021/03/06 08:05:53;;;;;;;38.65;21.60;;;;;;;14.14;43.71;97361.75;5035095;28;20044;-59
2021/03/06 08:08:37;;;;;;;31.52;17.13;;;;;;;13.63;44.36;97356.09;5030790;28;20041;-59
2021/03/06 08:11:05;;;;;;;19.67;13.23;;;;;;;13.35;44.23;97389.22;5013486;28;20450;-60
2021/03/06 08:13:47;;;;;;;31.63;15.60;;;;;;;13.01;45.77;97348.63;5023988;28;20033;-62
2021/03/06 08:18:55;;;;;;;20.52;13.57;;;;;;;13.16;45.03;97369.91;5046004;28;20025;-60
2021/03/06 08:21:32;;;;;;;23.75;14.85;;;;;;;13.29;44.31;97367.66;5035183;28;20125;-61
2021/03/06 08:24:30;;;;;;;25.88;13.30;;;;;;;13.20;44.97;97376.28;5026281;28;20041;-61
2021/03/06 08:27:02;;;;;;;19.88;13.27;;;;;;;12.58;46.60;97371.47;4992013;28;20065;-60
2021/03/06 08:29:28;;;;;;;18.77;12.13;;;;;;;12.63;46.23;97378.69;5007543;28;20026;-62
2021/03/06 08:32:25;;;;;;;16.63;8.70;;;;;;;12.32;46.28;97367.88;5032683;28;20040;-59
2021/03/06 08:34:52;;;;;;;19.38;11.30;;;;;;;12.52;46.00;97378.50;5019214;28;20045;-62
2021/03/06 08:39:51;;;;;;;23.67;12.23;;;;;;;11.57;44.18;97087.59;5045286;28;20614;-60
2021/03/06 08:42:20;;;;;;;20.20;12.02;;;;;;;13.11;44.14;97369.41;5043943;28;20055;-62
2021/03/06 08:44:47;;;;;;;18.70;11.45;;;;;;;12.55;44.23;97349.97;5021978;28;20260;-62
2021/03/06 08:47:22;;;;;;;19.17;10.40;;;;;;;12.93;44.49;97365.59;5021507;28;20030;-62
2021/03/06 08:49:51;;;;;;;24.85;11.43;;;;;;;13.02;43.83;97347.47;5019181;28;20037;-61
2021/03/06 08:52:18;;;;;;;17.45;9.98;;;;;;;12.48;43.72;97294.31;5024924;28;20085;-61
2021/03/06 08:54:44;;;;;;;17.48;9.70;;;;;;;13.04;43.59;97384.03;5010345;28;20061;-62
2021/03/06 08:57:22;;;;;;;12.98;7.95;;;;;;;12.75;44.18;97370.91;5009861;28;20066;-61
2021/03/06 08:59:49;;;;;;;18.63;10.85;;;;;;;12.25;44.75;97343.56;5025290;28;20032;-59
2021/03/06 09:02:15;;;;;;;14.25;9.52;;;;;;;12.91;44.65;97374.31;5022936;28;20044;-60
2021/03/06 09:04:43;;;;;;;17.52;11.40;;;;;;;12.36;45.04;97321.53;5024701;28;20091;-59
2021/03/06 09:07:37;;;;;;;24.92;10.75;;;;;;;12.66;44.64;97383.50;5023963;28;20455;-60
2021/03/06 09:10:15;;;;;;;16.67;9.20;;;;;;;12.60;45.22;97390.56;5025793;28;20247;-60
2021/03/06 09:12:44;;;;;;;20.83;10.00;;;;;;;12.56;45.45;97398.84;5025520;28;20026;-60
2021/03/06 09:15:29;;;;;;;19.67;10.93;;;;;;;12.27;46.97;97388.44;5020208;28;20115;-61
2021/03/06 09:17:55;;;;;;;20.40;10.35;;;;;;;12.57;46.19;97402.41;5020336;28;20025;-59
2021/03/06 09:20:21;;;;;;;18.58;10.10;;;;;;;12.16;45.94;97368.84;5044787;28;20037;-60
2021/03/06 09:22:49;;;;;;;9.18;5.97;;;;;;;11.77;47.00;97430.44;5011619;28;20479;-63
2021/03/06 09:25:27;;;;;;;18.33;9.73;;;;;;;11.43;47.45;97364.75;5029621;28;20545;-60
2021/03/06 09:27:53;;;;;;;12.73;6.75;;;;;;;11.01;47.67;97314.81;5010187;28;20056;-60
2021/03/06 09:30:26;;;;;;;11.80;6.90;;;;;;;9.62;48.87;97167.50;5014880;28;20033;-62
2021/03/06 09:32:53;;;;;;;11.68;6.60;;;;;;;11.53;47.62;97403.78;5014725;28;20028;-61
2021/03/06 09:35:20;;;;;;;12.23;6.93;;;;;;;11.19;48.14;97410.22;5044497;28;20077;-59
2021/03/06 09:37:54;;;;;;;9.20;6.50;;;;;;;10.75;47.90;97385.94;5044111;28;20263;-65
2021/03/06 09:40:22;;;;;;;9.98;5.68;;;;;;;10.37;49.20;97423.47;5031988;28;20107;-62
2021/03/06 09:42:54;;;;;;;6.65;4.95;;;;;;;10.80;48.71;97413.34;5009681;28;20124;-61
2021/03/06 09:45:25;;;;;;;12.27;4.97;;;;;;;9.36;49.85;97283.38;5022579;28;20120;-62
2021/03/06 09:47:51;;;;;;;19.27;5.55;;;;;;;10.46;50.19;97420.50;4666696;28;10000893;-63
2021/03/06 09:50:17;;;;;;;9.98;5.82;;;;;;;9.75;49.59;97279.63;5009851;28;20114;-63
2021/03/06 09:52:42;;;;;;;6.97;4.10;;;;;;;10.77;49.43;97402.97;5018849;28;20471;-59
2021/03/06 09:55:26;;;;;;;6.15;4.22;;;;;;;10.80;49.69;97421.66;5011311;28;20484;-66
2021/03/06 09:57:52;;;;;;;;;;;;;;;10.94;49.02;97424.75;5013212;28;20439;-61
2021/03/06 10:00:22;;;;;;;9.63;5.32;;;;;;;11.05;49.45;97432.13;5016137;28;19931;-62
2021/03/06 10:02:50;;;;;;;9.25;5.82;;;;;;;11.09;49.03;97383.09;5003963;28;20041;-61
2021/03/06 10:05:20;;;;;;;19.92;6.35;;;;;;;11.38;49.06;97428.84;5003951;28;20473;-60
2021/03/06 10:07:48;;;;;;;12.57;6.80;;;;;;;11.47;48.69;97427.47;5004019;28;20117;-60
2021/03/06 10:10:14;;;;;;;7.00;5.15;;;;;;;11.46;47.84;97380.66;5004340;28;20045;-61
2021/03/06 10:12:47;;;;;;;8.63;6.15;;;;;;;10.26;49.27;97275.66;5002665;28;20590;-60
2021/03/06 10:15:15;;;;;;;8.68;5.53;;;;;;;11.22;48.54;97375.44;5004039;28;20049;-61
2021/03/06 10:17:44;;;;;;;8.30;4.80;;;;;;;11.88;46.93;97448.88;5004141;28;20417;-60
2021/03/06 10:20:11;;;;;;;12.55;5.45;;;;;;;11.39;48.11;97436.00;5002858;28;20030;-60
2021/03/06 10:22:47;;;;;;;9.90;5.40;;;;;;;11.03;48.53;97411.47;5013164;28;20128;-61
2021/03/06 10:25:23;;;;;;;13.63;6.20;;;;;;;11.02;47.93;97368.31;5012099;28;20397;-61
2021/03/06 10:27:49;;;;;;;11.43;7.15;;;;;;;11.64;47.33;97421.47;5017430;28;20025;-60
2021/03/06 10:30:18;;;;;;;8.98;6.10;;;;;;;11.73;46.15;97447.00;5010302;28;20441;-63
2021/03/06 10:32:53;;;;;;;10.25;5.95;;;;;;;11.31;46.82;97450.88;5004002;28;20494;-63
2021/03/06 10:35:38;;;;;;;9.90;4.90;;;;;;;11.73;46.09;97446.19;5015497;28;20132;-63
2021/03/06 10:38:06;;;;;;;9.15;6.00;;;;;;;11.56;46.22;97446.63;5022602;28;20033;-63
2021/03/06 10:40:47;;;;;;;9.73;4.75;;;;;;;11.44;45.92;97444.03;5011086;28;20034;-62
2021/03/06 12:03:24;;;;;;;8.23;6.50;;;;;;;12.41;43.80;97444.22;5060077;27;20391;-60
2021/03/06 12:07:58;;;;;;;6.88;3.67;;;;;;;11.28;45.22;97463.53;5120422;27;20379;-60
2021/03/06 12:10:27;;;;;;;7.60;4.72;;;;;;;10.82;45.84;97449.81;5109717;28;20630;-62
2021/03/06 12:16:36;;;;;;;6.80;3.90;;;;;;;10.63;45.87;97415.38;5120679;27;20349;-61
2021/03/06 12:19:04;;;;;;;9.15;4.40;;;;;;;10.88;46.60;97465.00;5103281;28;20031;-60
2021/03/06 12:21:30;;;;;;;7.63;4.60;;;;;;;10.72;47.69;97455.94;5109795;28;20489;-60
2021/03/06 12:23:57;;;;;;;4.93;3.90;;;;;;;10.57;47.52;97466.66;5104096;28;20032;-59
2021/03/06 12:26:23;;;;;;;7.90;4.32;;;;;;;10.89;46.66;97469.38;5097675;28;20035;-61
2021/03/06 12:28:49;;;;;;;6.13;3.20;;;;;;;10.77;46.59;97472.25;5111296;27;20415;-60
2021/03/06 12:31:15;;;;;;;6.18;3.58;;;;;;;10.22;46.15;97421.53;5111985;28;20076;-62
2021/03/06 12:33:40;;;;;;;4.90;3.92;;;;;;;10.52;46.40;97469.72;5120149;28;20027;-61
2021/03/06 12:36:07;;;;;;;5.05;3.88;;;;;;;10.61;46.46;97467.56;5121273;28;20382;-62
2021/03/06 12:38:32;;;;;;;6.30;3.38;;;;;;;10.08;46.72;97415.66;5120887;28;20038;-62
2021/03/06 12:40:58;;;;;;;4.50;3.40;;;;;;;10.45;46.25;97452.94;5121401;27;20031;-63
2021/03/06 12:43:26;;;;;;;7.05;4.50;;;;;;;11.06;45.57;97480.06;5121549;28;20027;-62
2021/03/06 12:45:52;;;;;;;6.35;3.92;;;;;;;11.33;45.46;97476.28;5121722;28;20535;-61
2021/03/06 12:48:18;;;;;;;6.55;4.25;;;;;;;11.46;44.48;97477.75;5120432;28;20024;-62
2021/03/06 12:50:44;;;;;;;6.22;3.58;;;;;;;10.51;45.62;97448.72;5121432;28;20156;-62
2021/03/06 12:53:09;;;;;;;7.10;4.00;;;;;;;10.76;46.11;97478.97;5121376;27;20111;-62
2021/03/06 12:55:35;;;;;;;9.35;3.95;;;;;;;10.17;46.60;97427.34;5119135;28;20043;-61
2021/03/06 12:58:08;;;;;;;8.68;3.85;;;;;;;10.16;48.16;97483.84;5120970;28;20371;-61
2021/03/06 13:00:34;;;;;;;5.80;3.63;;;;;;;9.19;48.84;97350.06;5120996;28;20044;-62
2021/03/06 13:03:00;;;;;;;5.72;3.40;;;;;;;9.69;50.11;97491.25;5120932;28;20030;-63
2021/03/06 13:05:26;;;;;;;10.10;5.25;;;;;;;9.78;50.32;97513.22;5119030;28;20063;-62